PASV/SVW METAR and TAF weather

Enter ICAO airport designator
Station Type Date Time Source
PASV METAR 2022/06/28 13:55 UTC NOAA

PASV 281355Z AUTO 00000KT 9SM CLR 10/08 A3018 RMK AO2 SLP213 T00980078 $


Station Type Date Time Source
PASV Decoded METAR 2022/06/28 13:55 UTC NOAA

Sparrevohn Airways Facilities Sector, AK, United States (PASV) 61-06N 155-34W
Jun 28, 2022 - 09:55 AM EDT / 2022.06.28 1355 UTC
Wind: Calm:0
Visibility: 9 mile(s):0
Sky conditions: clear
Temperature: 49.6 F (9.8 C)
Dew Point: 46.0 F (7.8 C)
Relative Humidity: 87%
Pressure (altimeter): 30.18 in. Hg (1022 hPa)
ob: PASV 281355Z AUTO 00000KT 9SM CLR 10/08 A3018 RMK AO2 SLP213 T00980078
cycle: 14

Station Type Date Time Source
PASV TAF 2012/01/12 14:57 UTC NOAA

TAF
AMD PASV 1214/1320 33010G15KT 4800 -SN BLSN SCT003 SCT110 QNH2984INS
BECMG 1221/1222 VRB06KT 9999 NSW FEW010 SCT110 QNH3000INS LIMITED METWATCH TM25/1300Z TM37/1315Z
AMD 121453

Example: see airport list